Mehtap Bayraktar — TCPB — position and weather

sailwx.info

Track history (hours):
 
Tides and Currents Weather Stations Pressure Air Temp Water Temp Dewpoint Dewpoint Depression Visibility Wind Speed Wind Dir Waves Ship Positions

Mehtap Bayraktar

Last reported at 2014-Aug-23 00:09 UTC. Time now 2014-Aug-23 15:25 UTC.
Position N 38°30' E 002°24'.

Length 114 m; draft 6.1 m.

Type: Cargo ship. MMSI: 271000578.

Date/timePositionNaut miles runAvg speedWind from/ knotsBaromVisibWave heightAir tempDewpointWater temp
2014-Aug-23 00:09N 38°30' E 002°24'712.2
2014-Aug-22 23:33N 38°37' E 002°22'1313.0
2014-Aug-22 22:33N 38°49' E 002°16'1312.6
2014-Aug-22 21:33N 39°01' E 002°11'1212.2
2014-Aug-22 20:33N 39°13' E 002°06'1212.0
2014-Aug-22 19:33N 39°24' E 002°02'1212.0
2014-Aug-22 18:33N 39°35' E 001°57'1211.5
2014-Aug-22 17:33N 39°47' E 001°57'1111.1
2014-Aug-22 16:33N 39°58' E 001°59'1211.7
2014-Aug-22 15:33N 40°10' E 002°01'1211.9
2014-Aug-22 14:33N 40°21' E 002°03'1212.3
2014-Aug-22 13:33N 40°34' E 002°04'1312.6
2014-Aug-22 12:33N 40°46' E 002°06'1212.6
2014-Aug-22 11:33N 40°59' E 002°08'1612.6
2014-Aug-22 10:15N 41°15' E 002°10'6 3.1
2014-Aug-22 08:16N 41°21' E 002°10'0 0.0
2014-Aug-22 04:26N 41°21' E 002°10'0 0.0
2014-Aug-21 22:33N 41°21' E 002°10'6 5.8
2014-Aug-21 21:33N 41°15' E 002°10'8 8.4
2014-Aug-21 20:33N 41°09' E 002°03'1212.0
2014-Aug-21 19:33N 40°59' E 001°53'1211.8
2014-Aug-21 18:33N 40°50' E 001°43'1111.4
2014-Aug-21 17:33N 40°41' E 001°34'1211.8
2014-Aug-21 16:33N 40°32' E 001°24'1212.1
2014-Aug-21 15:33N 40°24' E 001°11'1412.3
2014-Aug-21 14:26N 40°17' E 000°56'  
2014-Aug-19 07:29N 38°43' E 000°57'1512.4
2014-Aug-19 06:16N 38°30' E 001°05'5611.8
2014-Aug-19 01:32N 37°50' E 001°55'4011.9
2014-Aug-18 22:12N 37°22' E 002°30'811.9
2014-Aug-18 21:33N 37°16' E 002°37'1211.8
2014-Aug-18 20:33N 37°07' E 002°46'24 5.4
2014-Aug-18 16:07N 36°48' E 003°06'0 0.0
2014-Aug-18 15:31N 36°48' E 003°06'0 0.0
2014-Aug-18 14:25N 36°48' E 003°06'0 0.0
2014-Aug-18 13:25N 36°48' E 003°06'0 0.0
2014-Aug-18 12:12N 36°48' E 003°06'0 0.0
2014-Aug-18 11:30N 36°48' E 003°06'0 0.0
2014-Aug-18 10:18N 36°48' E 003°06'0 0.0
2014-Aug-18 09:27N 36°48' E 003°06'0 0.0
2014-Aug-18 08:24N 36°48' E 003°06'0 0.0
2014-Aug-18 07:24N 36°48' E 003°06'  
2014-Aug-13 11:04N 36°46' E 003°04'0 0.0
2014-Aug-13 01:31N 36°46' E 003°04'  
Track history (hours):
 
Tides and Currents Weather Stations Pressure Air Temp Water Temp Dewpoint Dewpoint Depression Visibility Wind Speed Wind Dir Waves Ship Positions

Mehtap Bayraktar

Last reported at 2014-Aug-23 00:09 UTC. Time now 2014-Aug-23 15:25 UTC.
Position N 38°30' E 002°24'.

Length 114 m; draft 6.1 m.

Type: Cargo ship. MMSI: 271000578.

Date/timePositionNaut miles runAvg speedWind from/ knotsBaromVisibWave heightAir tempDewpointWater temp
2014-Aug-23 00:09N 38°30' E 002°24'712.2
2014-Aug-22 23:33N 38°37' E 002°22'1313.0
2014-Aug-22 22:33N 38°49' E 002°16'1312.6
2014-Aug-22 21:33N 39°01' E 002°11'1212.2
2014-Aug-22 20:33N 39°13' E 002°06'1212.0
2014-Aug-22 19:33N 39°24' E 002°02'1212.0
2014-Aug-22 18:33N 39°35' E 001°57'1211.5
2014-Aug-22 17:33N 39°47' E 001°57'1111.1
2014-Aug-22 16:33N 39°58' E 001°59'1211.7
2014-Aug-22 15:33N 40°10' E 002°01'1211.9
2014-Aug-22 14:33N 40°21' E 002°03'1212.3
2014-Aug-22 13:33N 40°34' E 002°04'1312.6
2014-Aug-22 12:33N 40°46' E 002°06'1212.6
2014-Aug-22 11:33N 40°59' E 002°08'1612.6
2014-Aug-22 10:15N 41°15' E 002°10'6 3.1
2014-Aug-22 08:16N 41°21' E 002°10'0 0.0
2014-Aug-22 04:26N 41°21' E 002°10'0 0.0
2014-Aug-21 22:33N 41°21' E 002°10'6 5.8
2014-Aug-21 21:33N 41°15' E 002°10'8 8.4
2014-Aug-21 20:33N 41°09' E 002°03'1212.0
2014-Aug-21 19:33N 40°59' E 001°53'1211.8
2014-Aug-21 18:33N 40°50' E 001°43'1111.4
2014-Aug-21 17:33N 40°41' E 001°34'1211.8
2014-Aug-21 16:33N 40°32' E 001°24'1212.1
2014-Aug-21 15:33N 40°24' E 001°11'1412.3
2014-Aug-21 14:26N 40°17' E 000°56'  
2014-Aug-19 07:29N 38°43' E 000°57'1512.4
2014-Aug-19 06:16N 38°30' E 001°05'5611.8
2014-Aug-19 01:32N 37°50' E 001°55'4011.9
2014-Aug-18 22:12N 37°22' E 002°30'811.9
2014-Aug-18 21:33N 37°16' E 002°37'1211.8
2014-Aug-18 20:33N 37°07' E 002°46'24 5.4
2014-Aug-18 16:07N 36°48' E 003°06'0 0.0
2014-Aug-18 15:31N 36°48' E 003°06'0 0.0
2014-Aug-18 14:25N 36°48' E 003°06'0 0.0
2014-Aug-18 13:25N 36°48' E 003°06'0 0.0
2014-Aug-18 12:12N 36°48' E 003°06'0 0.0
2014-Aug-18 11:30N 36°48' E 003°06'0 0.0
2014-Aug-18 10:18N 36°48' E 003°06'0 0.0
2014-Aug-18 09:27N 36°48' E 003°06'0 0.0
2014-Aug-18 08:24N 36°48' E 003°06'0 0.0
2014-Aug-18 07:24N 36°48' E 003°06'  
2014-Aug-13 11:04N 36°46' E 003°04'0 0.0
2014-Aug-13 01:31N 36°46' E 003°04'  

Dump ship's entire track history